Pagrindinis puslapis
METAR-TAF:

METAR-TAF

Oro uostai :

Igiugig, Aliaska, Jungtinės Amerikos Valstijos

platuma: 59-19-27N, ilguma: 155-54-06W, Aukštis: 27 m

Dabartinis oras

Ataskaita buvo paskelbta 37 minutes, ne 03:56 UTC
Vėjas 9 kt iš Vakarų
Temperatūra 7°C
Drėgmė 100%
Slėgis 995 hPa
Matomumas: 16.1 km
Išsisklaidę debesys ne aukštis 2100 ft
Išsisklaidę debesys ne aukštis 2900 ft
Apsiniaukę ne aukštis 3800 ft

METAR: PAIG 210356Z AUTO 28009KT 10SM SCT021 SCT029 OVC038 07/07 A2939 RMK AO2 RAB37E52 SLP965 P0000 T00670067 $

Laikas: 20:33 (04:33 UTC)


TAF: trūkstamas

Orai ataskaitas ir orų prognozės (METAR, TAF).

turimą stotys yra geltonos ir raudonos taškus žemėlapyje.

Perkelti pele per norėdami pamatyti stoties vardą.

Tada spustelėkite, norėdami matyti oro stebėjimo ir prognozės.

Norėdami pakeisti žemėlapį: spustelėkite ant žalios mygtukų su juodo kryžiaus žemyn,; žalią mygtuką su brūkšneliu, jei norite nutolinti; arba žalių rodyklių gretimoms žemėlapius.


METAR-TAF: